sensor_id;sensor_type;location;lat;lon;timestamp;P1;durP1;ratioP1;P2;durP2;ratioP2
6679;SDS011;3376;42.664;23.346;2023-05-10T00:00:29;4.53;;;4.37;;
6679;SDS011;3376;42.664;23.346;2023-05-10T00:02:56;4.43;;;4.23;;
6679;SDS011;3376;42.664;23.346;2023-05-10T00:05:23;5.67;;;5.47;;
6679;SDS011;3376;42.664;23.346;2023-05-10T00:07:49;5.10;;;4.90;;
6679;SDS011;3376;42.664;23.346;2023-05-10T00:10:16;5.07;;;4.87;;
6679;SDS011;3376;42.664;23.346;2023-05-10T00:12:43;5.30;;;5.07;;
6679;SDS011;3376;42.664;23.346;2023-05-10T00:15:11;5.43;;;5.23;;
6679;SDS011;3376;42.664;23.346;2023-05-10T00:17:38;5.00;;;4.80;;
6679;SDS011;3376;42.664;23.346;2023-05-10T00:20:05;5.60;;;5.40;;
6679;SDS011;3376;42.664;23.346;2023-05-10T00:22:33;5.43;;;5.23;;
6679;SDS011;3376;42.664;23.346;2023-05-10T00:24:59;5.73;;;5.53;;
6679;SDS011;3376;42.664;23.346;2023-05-10T00:27:26;5.77;;;5.57;;
6679;SDS011;3376;42.664;23.346;2023-05-10T00:29:53;5.97;;;5.67;;
6679;SDS011;3376;42.664;23.346;2023-05-10T00:32:21;5.50;;;5.30;;
6679;SDS011;3376;42.664;23.346;2023-05-10T00:34:48;6.13;;;5.77;;
6679;SDS011;3376;42.664;23.346;2023-05-10T00:37:14;5.97;;;5.47;;
6679;SDS011;3376;42.664;23.346;2023-05-10T00:39:41;6.27;;;5.97;;
6679;SDS011;3376;42.664;23.346;2023-05-10T00:42:08;5.67;;;5.47;;
6679;SDS011;3376;42.664;23.346;2023-05-10T00:44:35;6.07;;;5.87;;
6679;SDS011;3376;42.664;23.346;2023-05-10T00:47:01;6.03;;;5.83;;
6679;SDS011;3376;42.664;23.346;2023-05-10T00:49:30;6.13;;;5.93;;
6679;SDS011;3376;42.664;23.346;2023-05-10T00:51:57;5.77;;;5.47;;
6679;SDS011;3376;42.664;23.346;2023-05-10T00:54:23;7.37;;;6.97;;
6679;SDS011;3376;42.664;23.346;2023-05-10T00:56:50;6.93;;;6.63;;
6679;SDS011;3376;42.664;23.346;2023-05-10T00:59:18;6.27;;;6.03;;
6679;SDS011;3376;42.664;23.346;2023-05-10T01:01:45;6.43;;;6.23;;
6679;SDS011;3376;42.664;23.346;2023-05-10T01:04:13;6.70;;;6.50;;
6679;SDS011;3376;42.664;23.346;2023-05-10T01:06:42;7.13;;;6.83;;
6679;SDS011;3376;42.664;23.346;2023-05-10T01:09:09;7.03;;;6.73;;
6679;SDS011;3376;42.664;23.346;2023-05-10T01:11:36;6.53;;;6.33;;
6679;SDS011;3376;42.664;23.346;2023-05-10T01:14:04;6.40;;;6.10;;
6679;SDS011;3376;42.664;23.346;2023-05-10T01:16:32;7.57;;;7.27;;
6679;SDS011;3376;42.664;23.346;2023-05-10T01:19:05;6.67;;;6.30;;
6679;SDS011;3376;42.664;23.346;2023-05-10T01:21:38;7.00;;;6.70;;
6679;SDS011;3376;42.664;23.346;2023-05-10T01:24:35;6.73;;;6.43;;
6679;SDS011;3376;42.664;23.346;2023-05-10T01:33:29;5.80;;;5.60;;
6679;SDS011;3376;42.664;23.346;2023-05-10T01:36:02;5.70;;;5.50;;
6679;SDS011;3376;42.664;23.346;2023-05-10T01:38:37;5.43;;;5.23;;
6679;SDS011;3376;42.664;23.346;2023-05-10T01:41:11;5.50;;;5.30;;
6679;SDS011;3376;42.664;23.346;2023-05-10T01:43:57;5.43;;;5.23;;
6679;SDS011;3376;42.664;23.346;2023-05-10T01:46:28;4.60;;;4.40;;
6679;SDS011;3376;42.664;23.346;2023-05-10T01:49:02;5.20;;;4.90;;
6679;SDS011;3376;42.664;23.346;2023-05-10T01:51:36;4.83;;;4.63;;
6679;SDS011;3376;42.664;23.346;2023-05-10T01:54:06;4.83;;;4.70;;
6679;SDS011;3376;42.664;23.346;2023-05-10T01:56:35;4.00;;;3.90;;
6679;SDS011;3376;42.664;23.346;2023-05-10T01:59:06;4.13;;;3.97;;
6679;SDS011;3376;42.664;23.346;2023-05-10T02:01:38;4.10;;;4.00;;
6679;SDS011;3376;42.664;23.346;2023-05-10T02:04:07;4.10;;;3.93;;
6679;SDS011;3376;42.664;23.346;2023-05-10T02:06:36;4.40;;;4.20;;
6679;SDS011;3376;42.664;23.346;2023-05-10T02:09:05;4.07;;;3.87;;
6679;SDS011;3376;42.664;23.346;2023-05-10T02:11:34;4.07;;;3.97;;
6679;SDS011;3376;42.664;23.346;2023-05-10T02:14:03;3.83;;;3.73;;
6679;SDS011;3376;42.664;23.346;2023-05-10T02:16:33;4.90;;;4.17;;
6679;SDS011;3376;42.664;23.346;2023-05-10T02:19:02;3.23;;;3.13;;
6679;SDS011;3376;42.664;23.346;2023-05-10T02:21:31;4.53;;;4.10;;
6679;SDS011;3376;42.664;23.346;2023-05-10T02:24:00;4.67;;;4.47;;
6679;SDS011;3376;42.664;23.346;2023-05-10T02:26:29;4.17;;;3.87;;
6679;SDS011;3376;42.664;23.346;2023-05-10T02:28:57;4.20;;;4.00;;
6679;SDS011;3376;42.664;23.346;2023-05-10T02:31:25;4.30;;;3.97;;
6679;SDS011;3376;42.664;23.346;2023-05-10T02:33:52;4.50;;;4.20;;
6679;SDS011;3376;42.664;23.346;2023-05-10T02:36:20;4.33;;;3.93;;
6679;SDS011;3376;42.664;23.346;2023-05-10T02:38:50;4.20;;;4.00;;
6679;SDS011;3376;42.664;23.346;2023-05-10T02:41:19;4.10;;;3.80;;
6679;SDS011;3376;42.664;23.346;2023-05-10T02:43:49;3.73;;;3.43;;
6679;SDS011;3376;42.664;23.346;2023-05-10T02:46:17;4.27;;;3.90;;
6679;SDS011;3376;42.664;23.346;2023-05-10T02:48:44;4.03;;;3.73;;
6679;SDS011;3376;42.664;23.346;2023-05-10T02:51:10;4.10;;;3.90;;
6679;SDS011;3376;42.664;23.346;2023-05-10T02:53:40;4.50;;;4.20;;
6679;SDS011;3376;42.664;23.346;2023-05-10T02:56:12;4.20;;;4.00;;
6679;SDS011;3376;42.664;23.346;2023-05-10T02:58:42;4.37;;;4.17;;
6679;SDS011;3376;42.664;23.346;2023-05-10T03:01:09;4.27;;;4.07;;
6679;SDS011;3376;42.664;23.346;2023-05-10T03:03:35;3.87;;;3.67;;
6679;SDS011;3376;42.664;23.346;2023-05-10T03:06:02;4.17;;;4.00;;
6679;SDS011;3376;42.664;23.346;2023-05-10T03:08:29;5.03;;;3.83;;
6679;SDS011;3376;42.664;23.346;2023-05-10T03:11:04;4.60;;;4.40;;
6679;SDS011;3376;42.664;23.346;2023-05-10T03:13:52;4.20;;;3.83;;
6679;SDS011;3376;42.664;23.346;2023-05-10T03:16:29;4.03;;;3.77;;
6679;SDS011;3376;42.664;23.346;2023-05-10T03:19:03;4.03;;;3.83;;
6679;SDS011;3376;42.664;23.346;2023-05-10T03:21:36;4.80;;;4.60;;
6679;SDS011;3376;42.664;23.346;2023-05-10T03:24:07;4.20;;;4.00;;
6679;SDS011;3376;42.664;23.346;2023-05-10T03:26:38;5.10;;;4.80;;
6679;SDS011;3376;42.664;23.346;2023-05-10T03:29:06;4.40;;;4.20;;
6679;SDS011;3376;42.664;23.346;2023-05-10T03:31:34;4.30;;;4.10;;
6679;SDS011;3376;42.664;23.346;2023-05-10T03:34:01;4.40;;;4.00;;
6679;SDS011;3376;42.664;23.346;2023-05-10T03:36:28;3.53;;;3.33;;
6679;SDS011;3376;42.664;23.346;2023-05-10T03:38:55;3.90;;;3.80;;
6679;SDS011;3376;42.664;23.346;2023-05-10T03:41:22;5.17;;;4.77;;
6679;SDS011;3376;42.664;23.346;2023-05-10T03:43:50;4.13;;;3.83;;
6679;SDS011;3376;42.664;23.346;2023-05-10T03:46:17;4.27;;;4.00;;
6679;SDS011;3376;42.664;23.346;2023-05-10T03:48:43;4.70;;;4.50;;
6679;SDS011;3376;42.664;23.346;2023-05-10T03:51:10;4.13;;;3.93;;
6679;SDS011;3376;42.664;23.346;2023-05-10T03:53:37;4.40;;;4.17;;
6679;SDS011;3376;42.664;23.346;2023-05-10T03:56:03;4.30;;;4.10;;
6679;SDS011;3376;42.664;23.346;2023-05-10T03:58:30;4.70;;;4.30;;
6679;SDS011;3376;42.664;23.346;2023-05-10T04:00:58;4.67;;;4.37;;
6679;SDS011;3376;42.664;23.346;2023-05-10T04:03:25;4.50;;;4.10;;
6679;SDS011;3376;42.664;23.346;2023-05-10T04:05:58;4.77;;;4.47;;
6679;SDS011;3376;42.664;23.346;2023-05-10T04:08:26;4.33;;;4.10;;
6679;SDS011;3376;42.664;23.346;2023-05-10T04:10:53;4.07;;;3.93;;
6679;SDS011;3376;42.664;23.346;2023-05-10T04:13:19;4.47;;;4.27;;
6679;SDS011;3376;42.664;23.346;2023-05-10T04:15:47;4.37;;;4.07;;
6679;SDS011;3376;42.664;23.346;2023-05-10T04:18:15;3.87;;;3.70;;
6679;SDS011;3376;42.664;23.346;2023-05-10T04:20:42;4.67;;;4.37;;
6679;SDS011;3376;42.664;23.346;2023-05-10T04:23:09;4.43;;;4.03;;
6679;SDS011;3376;42.664;23.346;2023-05-10T04:25:35;4.70;;;4.37;;
6679;SDS011;3376;42.664;23.346;2023-05-10T04:28:02;4.43;;;4.07;;
6679;SDS011;3376;42.664;23.346;2023-05-10T04:30:29;4.57;;;4.37;;
6679;SDS011;3376;42.664;23.346;2023-05-10T04:32:56;4.27;;;4.07;;
6679;SDS011;3376;42.664;23.346;2023-05-10T04:35:24;5.00;;;4.63;;
6679;SDS011;3376;42.664;23.346;2023-05-10T04:37:51;4.43;;;4.17;;
6679;SDS011;3376;42.664;23.346;2023-05-10T04:40:18;4.50;;;4.20;;
6679;SDS011;3376;42.664;23.346;2023-05-10T04:42:44;4.87;;;4.47;;
6679;SDS011;3376;42.664;23.346;2023-05-10T04:45:11;4.77;;;4.47;;
6679;SDS011;3376;42.664;23.346;2023-05-10T04:47:39;4.93;;;4.73;;
6679;SDS011;3376;42.664;23.346;2023-05-10T04:50:06;5.93;;;5.43;;
6679;SDS011;3376;42.664;23.346;2023-05-10T04:52:35;4.93;;;4.67;;
6679;SDS011;3376;42.664;23.346;2023-05-10T04:55:02;4.77;;;4.47;;
6679;SDS011;3376;42.664;23.346;2023-05-10T04:57:29;4.47;;;4.27;;
6679;SDS011;3376;42.664;23.346;2023-05-10T04:59:56;4.77;;;4.37;;
6679;SDS011;3376;42.664;23.346;2023-05-10T05:02:23;5.17;;;4.97;;
6679;SDS011;3376;42.664;23.346;2023-05-10T05:04:50;4.60;;;4.40;;
6679;SDS011;3376;42.664;23.346;2023-05-10T05:07:16;6.07;;;4.73;;
6679;SDS011;3376;42.664;23.346;2023-05-10T05:09:45;5.50;;;5.07;;
6679;SDS011;3376;42.664;23.346;2023-05-10T05:12:11;5.10;;;4.90;;
6679;SDS011;3376;42.664;23.346;2023-05-10T05:14:39;5.93;;;5.63;;
6679;SDS011;3376;42.664;23.346;2023-05-10T05:17:06;5.60;;;5.23;;
6679;SDS011;3376;42.664;23.346;2023-05-10T05:19:33;6.00;;;5.50;;
6679;SDS011;3376;42.664;23.346;2023-05-10T05:22:00;6.03;;;5.53;;
6679;SDS011;3376;42.664;23.346;2023-05-10T05:24:27;5.33;;;5.13;;
6679;SDS011;3376;42.664;23.346;2023-05-10T05:26:55;5.13;;;4.93;;
6679;SDS011;3376;42.664;23.346;2023-05-10T05:29:22;5.87;;;5.57;;
6679;SDS011;3376;42.664;23.346;2023-05-10T05:31:49;5.53;;;5.23;;
6679;SDS011;3376;42.664;23.346;2023-05-10T05:34:15;5.87;;;5.33;;
6679;SDS011;3376;42.664;23.346;2023-05-10T05:36:42;6.60;;;6.10;;
6679;SDS011;3376;42.664;23.346;2023-05-10T05:39:09;6.13;;;5.60;;
6679;SDS011;3376;42.664;23.346;2023-05-10T05:41:36;7.37;;;6.97;;
6679;SDS011;3376;42.664;23.346;2023-05-10T05:44:04;6.50;;;5.97;;
6679;SDS011;3376;42.664;23.346;2023-05-10T05:46:30;6.13;;;5.73;;
6679;SDS011;3376;42.664;23.346;2023-05-10T05:48:57;6.73;;;6.13;;
6679;SDS011;3376;42.664;23.346;2023-05-10T05:51:24;6.03;;;5.63;;
6679;SDS011;3376;42.664;23.346;2023-05-10T05:53:51;6.20;;;5.90;;
6679;SDS011;3376;42.664;23.346;2023-05-10T05:56:18;5.40;;;5.10;;
6679;SDS011;3376;42.664;23.346;2023-05-10T05:58:49;7.63;;;6.93;;
6679;SDS011;3376;42.664;23.346;2023-05-10T06:01:17;7.20;;;6.70;;
6679;SDS011;3376;42.664;23.346;2023-05-10T06:03:44;6.90;;;6.60;;
6679;SDS011;3376;42.664;23.346;2023-05-10T06:06:10;7.67;;;7.27;;
6679;SDS011;3376;42.664;23.346;2023-05-10T06:08:37;8.40;;;7.90;;
6679;SDS011;3376;42.664;23.346;2023-05-10T06:11:04;8.07;;;7.27;;
6679;SDS011;3376;42.664;23.346;2023-05-10T06:13:31;8.57;;;8.03;;
6679;SDS011;3376;42.664;23.346;2023-05-10T06:16:00;7.83;;;7.33;;
6679;SDS011;3376;42.664;23.346;2023-05-10T06:18:28;7.27;;;6.83;;
6679;SDS011;3376;42.664;23.346;2023-05-10T06:20:55;7.60;;;6.83;;
6679;SDS011;3376;42.664;23.346;2023-05-10T06:23:22;7.53;;;6.93;;
6679;SDS011;3376;42.664;23.346;2023-05-10T06:25:50;7.53;;;7.23;;
6679;SDS011;3376;42.664;23.346;2023-05-10T06:28:17;7.63;;;7.23;;
6679;SDS011;3376;42.664;23.346;2023-05-10T06:30:44;8.33;;;7.73;;
6679;SDS011;3376;42.664;23.346;2023-05-10T06:33:11;7.93;;;7.40;;
6679;SDS011;3376;42.664;23.346;2023-05-10T06:35:39;7.23;;;6.80;;
6679;SDS011;3376;42.664;23.346;2023-05-10T06:38:05;7.30;;;6.53;;
6679;SDS011;3376;42.664;23.346;2023-05-10T06:40:32;8.40;;;7.80;;
6679;SDS011;3376;42.664;23.346;2023-05-10T06:42:59;6.27;;;5.90;;
6679;SDS011;3376;42.664;23.346;2023-05-10T06:45:26;8.47;;;7.60;;
6679;SDS011;3376;42.664;23.346;2023-05-10T06:47:52;7.03;;;6.57;;
6679;SDS011;3376;42.664;23.346;2023-05-10T06:50:19;7.17;;;6.87;;
6679;SDS011;3376;42.664;23.346;2023-05-10T06:52:47;7.07;;;6.57;;
6679;SDS011;3376;42.664;23.346;2023-05-10T06:55:14;7.70;;;7.30;;
6679;SDS011;3376;42.664;23.346;2023-05-10T06:57:41;8.10;;;7.73;;
6679;SDS011;3376;42.664;23.346;2023-05-10T07:00:08;7.40;;;7.00;;
6679;SDS011;3376;42.664;23.346;2023-05-10T07:02:35;7.93;;;7.30;;
6679;SDS011;3376;42.664;23.346;2023-05-10T07:05:02;12.40;;;7.57;;
6679;SDS011;3376;42.664;23.346;2023-05-10T07:07:29;9.13;;;8.27;;
6679;SDS011;3376;42.664;23.346;2023-05-10T07:09:58;8.13;;;7.70;;
6679;SDS011;3376;42.664;23.346;2023-05-10T07:12:24;7.60;;;7.23;;
6679;SDS011;3376;42.664;23.346;2023-05-10T07:14:51;5.97;;;5.70;;
6679;SDS011;3376;42.664;23.346;2023-05-10T07:17:18;6.87;;;6.37;;
6679;SDS011;3376;42.664;23.346;2023-05-10T07:19:45;7.13;;;6.63;;
6679;SDS011;3376;42.664;23.346;2023-05-10T07:22:11;6.87;;;6.47;;
6679;SDS011;3376;42.664;23.346;2023-05-10T07:24:38;7.53;;;7.07;;
6679;SDS011;3376;42.664;23.346;2023-05-10T07:27:06;6.80;;;6.30;;
6679;SDS011;3376;42.664;23.346;2023-05-10T07:29:34;7.80;;;7.20;;
6679;SDS011;3376;42.664;23.346;2023-05-10T07:32:01;7.17;;;6.57;;
6679;SDS011;3376;42.664;23.346;2023-05-10T07:34:27;7.53;;;7.10;;
6679;SDS011;3376;42.664;23.346;2023-05-10T07:36:55;7.10;;;6.33;;
6679;SDS011;3376;42.664;23.346;2023-05-10T07:39:22;11.63;;;8.23;;
6679;SDS011;3376;42.664;23.346;2023-05-10T07:41:49;8.70;;;7.80;;
6679;SDS011;3376;42.664;23.346;2023-05-10T07:44:17;9.27;;;8.33;;
6679;SDS011;3376;42.664;23.346;2023-05-10T07:46:45;7.70;;;7.40;;
6679;SDS011;3376;42.664;23.346;2023-05-10T07:49:12;8.40;;;7.80;;
6679;SDS011;3376;42.664;23.346;2023-05-10T07:51:38;7.30;;;6.73;;
6679;SDS011;3376;42.664;23.346;2023-05-10T07:54:05;8.40;;;7.80;;
6679;SDS011;3376;42.664;23.346;2023-05-10T07:56:32;9.03;;;8.20;;
6679;SDS011;3376;42.664;23.346;2023-05-10T07:58:59;7.83;;;7.33;;
6679;SDS011;3376;42.664;23.346;2023-05-10T08:01:29;8.80;;;8.07;;
6679;SDS011;3376;42.664;23.346;2023-05-10T08:03:57;16.53;;;10.73;;
6679;SDS011;3376;42.664;23.346;2023-05-10T08:06:25;8.50;;;7.90;;
6679;SDS011;3376;42.664;23.346;2023-05-10T08:08:53;8.20;;;7.67;;
6679;SDS011;3376;42.664;23.346;2023-05-10T08:11:20;9.10;;;8.23;;
6679;SDS011;3376;42.664;23.346;2023-05-10T08:13:47;10.30;;;9.23;;
6679;SDS011;3376;42.664;23.346;2023-05-10T08:16:16;9.67;;;8.80;;
6679;SDS011;3376;42.664;23.346;2023-05-10T08:18:44;8.73;;;8.03;;
6679;SDS011;3376;42.664;23.346;2023-05-10T08:21:12;9.00;;;8.30;;
6679;SDS011;3376;42.664;23.346;2023-05-10T08:23:39;8.63;;;7.97;;
6679;SDS011;3376;42.664;23.346;2023-05-10T08:26:06;7.97;;;7.50;;
6679;SDS011;3376;42.664;23.346;2023-05-10T08:28:33;8.60;;;7.93;;
6679;SDS011;3376;42.664;23.346;2023-05-10T08:31:00;8.70;;;8.17;;
6679;SDS011;3376;42.664;23.346;2023-05-10T08:33:26;8.27;;;7.87;;
6679;SDS011;3376;42.664;23.346;2023-05-10T08:35:54;8.40;;;7.90;;
6679;SDS011;3376;42.664;23.346;2023-05-10T08:38:21;7.60;;;7.17;;
6679;SDS011;3376;42.664;23.346;2023-05-10T08:40:48;8.10;;;7.77;;
6679;SDS011;3376;42.664;23.346;2023-05-10T08:43:16;9.93;;;9.13;;
6679;SDS011;3376;42.664;23.346;2023-05-10T08:45:43;9.27;;;8.47;;
6679;SDS011;3376;42.664;23.346;2023-05-10T08:48:12;8.07;;;7.67;;
6679;SDS011;3376;42.664;23.346;2023-05-10T08:50:40;8.83;;;8.23;;
6679;SDS011;3376;42.664;23.346;2023-05-10T08:53:11;8.17;;;7.50;;
6679;SDS011;3376;42.664;23.346;2023-05-10T08:55:39;9.70;;;8.90;;
6679;SDS011;3376;42.664;23.346;2023-05-10T08:58:07;10.07;;;9.30;;
6679;SDS011;3376;42.664;23.346;2023-05-10T09:00:35;9.23;;;8.73;;
6679;SDS011;3376;42.664;23.346;2023-05-10T09:03:03;9.37;;;8.77;;
6679;SDS011;3376;42.664;23.346;2023-05-10T09:05:31;9.57;;;8.93;;
6679;SDS011;3376;42.664;23.346;2023-05-10T09:07:58;9.13;;;8.63;;
6679;SDS011;3376;42.664;23.346;2023-05-10T09:10:27;8.57;;;7.93;;
6679;SDS011;3376;42.664;23.346;2023-05-10T09:12:55;8.50;;;7.83;;
6679;SDS011;3376;42.664;23.346;2023-05-10T09:15:23;9.77;;;9.17;;
6679;SDS011;3376;42.664;23.346;2023-05-10T09:17:50;8.60;;;8.20;;
6679;SDS011;3376;42.664;23.346;2023-05-10T09:20:17;10.03;;;9.03;;
6679;SDS011;3376;42.664;23.346;2023-05-10T09:22:44;8.63;;;8.20;;
6679;SDS011;3376;42.664;23.346;2023-05-10T09:25:11;10.00;;;9.13;;
6679;SDS011;3376;42.664;23.346;2023-05-10T09:27:43;9.27;;;8.73;;
6679;SDS011;3376;42.664;23.346;2023-05-10T09:30:15;9.70;;;9.10;;
6679;SDS011;3376;42.664;23.346;2023-05-10T09:32:43;9.07;;;8.60;;
6679;SDS011;3376;42.664;23.346;2023-05-10T09:35:11;9.30;;;8.90;;
6679;SDS011;3376;42.664;23.346;2023-05-10T09:37:39;9.23;;;8.63;;
6679;SDS011;3376;42.664;23.346;2023-05-10T09:40:08;10.43;;;9.77;;
6679;SDS011;3376;42.664;23.346;2023-05-10T09:42:38;8.70;;;8.10;;
6679;SDS011;3376;42.664;23.346;2023-05-10T09:45:08;8.53;;;8.03;;
6679;SDS011;3376;42.664;23.346;2023-05-10T09:47:35;9.03;;;8.60;;
6679;SDS011;3376;42.664;23.346;2023-05-10T09:50:02;9.57;;;8.97;;
6679;SDS011;3376;42.664;23.346;2023-05-10T09:52:30;9.93;;;9.10;;
6679;SDS011;3376;42.664;23.346;2023-05-10T09:54:57;8.00;;;7.57;;
6679;SDS011;3376;42.664;23.346;2023-05-10T09:57:24;9.03;;;8.17;;
6679;SDS011;3376;42.664;23.346;2023-05-10T09:59:51;8.83;;;8.43;;
6679;SDS011;3376;42.664;23.346;2023-05-10T10:02:20;8.53;;;7.93;;
6679;SDS011;3376;42.664;23.346;2023-05-10T10:04:49;8.67;;;7.80;;
6679;SDS011;3376;42.664;23.346;2023-05-10T10:07:17;8.57;;;7.80;;
6679;SDS011;3376;42.664;23.346;2023-05-10T10:09:49;9.33;;;8.73;;
6679;SDS011;3376;42.664;23.346;2023-05-10T10:12:17;8.80;;;8.30;;
6679;SDS011;3376;42.664;23.346;2023-05-10T10:14:45;8.50;;;7.67;;
6679;SDS011;3376;42.664;23.346;2023-05-10T10:17:14;8.00;;;7.50;;
6679;SDS011;3376;42.664;23.346;2023-05-10T10:19:43;8.30;;;7.83;;
6679;SDS011;3376;42.664;23.346;2023-05-10T10:22:10;7.57;;;7.17;;
6679;SDS011;3376;42.664;23.346;2023-05-10T10:24:37;7.83;;;7.43;;
6679;SDS011;3376;42.664;23.346;2023-05-10T10:27:16;7.57;;;6.90;;
6679;SDS011;3376;42.664;23.346;2023-05-10T10:29:52;8.60;;;8.10;;
6679;SDS011;3376;42.664;23.346;2023-05-10T10:32:42;7.70;;;7.30;;
6679;SDS011;3376;42.664;23.346;2023-05-10T10:35:29;8.67;;;8.20;;
6679;SDS011;3376;42.664;23.346;2023-05-10T10:37:57;7.80;;;7.17;;
6679;SDS011;3376;42.664;23.346;2023-05-10T10:40:24;8.30;;;7.60;;
6679;SDS011;3376;42.664;23.346;2023-05-10T10:42:52;8.20;;;7.43;;
6679;SDS011;3376;42.664;23.346;2023-05-10T10:45:20;6.90;;;6.60;;
6679;SDS011;3376;42.664;23.346;2023-05-10T10:47:48;6.37;;;6.00;;
6679;SDS011;3376;42.664;23.346;2023-05-10T10:50:14;6.53;;;6.23;;
6679;SDS011;3376;42.664;23.346;2023-05-10T10:52:43;9.90;;;7.10;;
6679;SDS011;3376;42.664;23.346;2023-05-10T10:55:13;7.00;;;6.70;;
6679;SDS011;3376;42.664;23.346;2023-05-10T10:57:43;7.60;;;7.20;;
6679;SDS011;3376;42.664;23.346;2023-05-10T11:00:18;6.00;;;5.80;;
6679;SDS011;3376;42.664;23.346;2023-05-10T11:02:48;8.07;;;7.47;;
6679;SDS011;3376;42.664;23.346;2023-05-10T11:08:13;7.00;;;6.60;;
6679;SDS011;3376;42.664;23.346;2023-05-10T11:10:51;6.53;;;6.23;;
6679;SDS011;3376;42.664;23.346;2023-05-10T11:13:28;5.60;;;5.20;;
6679;SDS011;3376;42.664;23.346;2023-05-10T11:15:57;6.57;;;6.27;;
6679;SDS011;3376;42.664;23.346;2023-05-10T11:18:25;10.30;;;7.00;;
6679;SDS011;3376;42.664;23.346;2023-05-10T11:20:55;6.30;;;5.77;;
6679;SDS011;3376;42.664;23.346;2023-05-10T11:23:28;6.93;;;6.53;;
6679;SDS011;3376;42.664;23.346;2023-05-10T11:25:56;7.80;;;7.33;;
6679;SDS011;3376;42.664;23.346;2023-05-10T11:28:23;6.77;;;6.47;;
6679;SDS011;3376;42.664;23.346;2023-05-10T11:30:50;6.53;;;6.13;;
6679;SDS011;3376;42.664;23.346;2023-05-10T11:33:17;7.20;;;6.70;;
6679;SDS011;3376;42.664;23.346;2023-05-10T11:35:45;7.10;;;6.53;;
6679;SDS011;3376;42.664;23.346;2023-05-10T11:38:13;7.00;;;6.50;;
6679;SDS011;3376;42.664;23.346;2023-05-10T11:40:41;6.97;;;6.40;;
6679;SDS011;3376;42.664;23.346;2023-05-10T11:43:09;6.50;;;6.10;;
6679;SDS011;3376;42.664;23.346;2023-05-10T11:45:41;6.87;;;6.33;;
6679;SDS011;3376;42.664;23.346;2023-05-10T11:48:08;7.00;;;6.47;;
6679;SDS011;3376;42.664;23.346;2023-05-10T11:50:35;5.83;;;5.53;;
6679;SDS011;3376;42.664;23.346;2023-05-10T11:53:02;6.60;;;6.37;;
6679;SDS011;3376;42.664;23.346;2023-05-10T11:55:29;7.30;;;6.87;;
6679;SDS011;3376;42.664;23.346;2023-05-10T11:58:01;6.83;;;6.30;;
6679;SDS011;3376;42.664;23.346;2023-05-10T12:00:29;6.63;;;6.10;;
6679;SDS011;3376;42.664;23.346;2023-05-10T12:02:56;7.10;;;6.53;;
6679;SDS011;3376;42.664;23.346;2023-05-10T12:05:23;7.20;;;6.50;;
6679;SDS011;3376;42.664;23.346;2023-05-10T12:07:50;6.83;;;6.43;;
6679;SDS011;3376;42.664;23.346;2023-05-10T12:10:17;7.60;;;7.13;;
6679;SDS011;3376;42.664;23.346;2023-05-10T12:12:52;7.90;;;7.50;;
6679;SDS011;3376;42.664;23.346;2023-05-10T12:15:20;9.30;;;8.40;;
6679;SDS011;3376;42.664;23.346;2023-05-10T12:17:48;8.27;;;7.53;;
6679;SDS011;3376;42.664;23.346;2023-05-10T12:20:16;7.23;;;6.67;;
6679;SDS011;3376;42.664;23.346;2023-05-10T12:22:49;8.10;;;7.13;;
6679;SDS011;3376;42.664;23.346;2023-05-10T12:25:16;8.40;;;7.90;;
6679;SDS011;3376;42.664;23.346;2023-05-10T12:27:53;7.47;;;6.93;;
6679;SDS011;3376;42.664;23.346;2023-05-10T12:30:23;7.80;;;7.20;;
6679;SDS011;3376;42.664;23.346;2023-05-10T12:32:50;9.37;;;8.07;;
6679;SDS011;3376;42.664;23.346;2023-05-10T12:35:18;8.40;;;7.80;;
6679;SDS011;3376;42.664;23.346;2023-05-10T12:37:47;7.93;;;7.20;;
6679;SDS011;3376;42.664;23.346;2023-05-10T12:40:14;8.57;;;7.37;;
6679;SDS011;3376;42.664;23.346;2023-05-10T12:42:40;7.87;;;7.13;;
6679;SDS011;3376;42.664;23.346;2023-05-10T12:45:08;7.33;;;6.60;;
6679;SDS011;3376;42.664;23.346;2023-05-10T12:47:37;7.43;;;6.83;;
6679;SDS011;3376;42.664;23.346;2023-05-10T12:50:04;7.77;;;7.00;;
6679;SDS011;3376;42.664;23.346;2023-05-10T12:52:32;9.10;;;8.47;;
6679;SDS011;3376;42.664;23.346;2023-05-10T12:54:59;7.30;;;6.90;;
6679;SDS011;3376;42.664;23.346;2023-05-10T12:57:26;8.10;;;7.63;;
6679;SDS011;3376;42.664;23.346;2023-05-10T12:59:53;10.30;;;7.20;;
6679;SDS011;3376;42.664;23.346;2023-05-10T13:02:20;8.73;;;8.20;;
6679;SDS011;3376;42.664;23.346;2023-05-10T13:04:49;8.20;;;7.57;;
6679;SDS011;3376;42.664;23.346;2023-05-10T13:07:16;8.20;;;7.70;;
6679;SDS011;3376;42.664;23.346;2023-05-10T13:09:43;7.23;;;6.83;;
6679;SDS011;3376;42.664;23.346;2023-05-10T13:12:19;8.27;;;7.33;;
6679;SDS011;3376;42.664;23.346;2023-05-10T13:14:46;7.27;;;6.80;;
6679;SDS011;3376;42.664;23.346;2023-05-10T13:17:13;7.70;;;7.00;;
6679;SDS011;3376;42.664;23.346;2023-05-10T13:19:40;8.00;;;7.40;;
6679;SDS011;3376;42.664;23.346;2023-05-10T13:22:08;8.50;;;7.90;;
6679;SDS011;3376;42.664;23.346;2023-05-10T13:24:34;9.27;;;6.80;;
6679;SDS011;3376;42.664;23.346;2023-05-10T13:27:01;6.40;;;6.10;;
6679;SDS011;3376;42.664;23.346;2023-05-10T13:29:28;6.70;;;6.37;;
6679;SDS011;3376;42.664;23.346;2023-05-10T13:31:55;6.13;;;5.60;;
6679;SDS011;3376;42.664;23.346;2023-05-10T13:34:21;5.53;;;5.33;;
6679;SDS011;3376;42.664;23.346;2023-05-10T13:36:49;6.50;;;6.20;;
6679;SDS011;3376;42.664;23.346;2023-05-10T13:39:17;5.90;;;5.70;;
6679;SDS011;3376;42.664;23.346;2023-05-10T13:41:44;5.43;;;5.23;;
6679;SDS011;3376;42.664;23.346;2023-05-10T13:44:11;7.77;;;7.20;;
6679;SDS011;3376;42.664;23.346;2023-05-10T13:46:39;5.67;;;5.37;;
6679;SDS011;3376;42.664;23.346;2023-05-10T13:49:05;7.57;;;6.87;;
6679;SDS011;3376;42.664;23.346;2023-05-10T13:51:33;7.73;;;7.33;;
6679;SDS011;3376;42.664;23.346;2023-05-10T13:54:00;6.20;;;5.70;;
6679;SDS011;3376;42.664;23.346;2023-05-10T13:56:41;7.67;;;6.93;;
6679;SDS011;3376;42.664;23.346;2023-05-10T13:59:09;8.30;;;7.83;;
6679;SDS011;3376;42.664;23.346;2023-05-10T14:01:35;6.80;;;6.40;;
6679;SDS011;3376;42.664;23.346;2023-05-10T14:04:03;7.47;;;6.90;;
6679;SDS011;3376;42.664;23.346;2023-05-10T14:06:29;6.47;;;6.17;;
6679;SDS011;3376;42.664;23.346;2023-05-10T14:08:56;8.00;;;6.60;;
6679;SDS011;3376;42.664;23.346;2023-05-10T14:11:23;7.00;;;6.50;;
6679;SDS011;3376;42.664;23.346;2023-05-10T14:13:51;7.20;;;6.63;;
6679;SDS011;3376;42.664;23.346;2023-05-10T14:16:18;7.43;;;6.33;;
6679;SDS011;3376;42.664;23.346;2023-05-10T14:18:45;8.63;;;6.30;;
6679;SDS011;3376;42.664;23.346;2023-05-10T14:21:12;6.77;;;6.47;;
6679;SDS011;3376;42.664;23.346;2023-05-10T14:23:38;6.50;;;6.10;;
6679;SDS011;3376;42.664;23.346;2023-05-10T14:26:05;9.93;;;7.73;;
6679;SDS011;3376;42.664;23.346;2023-05-10T14:28:32;7.20;;;6.63;;
6679;SDS011;3376;42.664;23.346;2023-05-10T14:31:01;6.70;;;6.40;;
6679;SDS011;3376;42.664;23.346;2023-05-10T14:33:27;6.93;;;6.63;;
6679;SDS011;3376;42.664;23.346;2023-05-10T14:35:54;7.77;;;7.00;;
6679;SDS011;3376;42.664;23.346;2023-05-10T14:38:22;8.03;;;7.53;;
6679;SDS011;3376;42.664;23.346;2023-05-10T14:40:49;6.53;;;6.00;;
6679;SDS011;3376;42.664;23.346;2023-05-10T14:43:16;7.20;;;6.77;;
6679;SDS011;3376;42.664;23.346;2023-05-10T14:45:43;6.23;;;5.93;;
6679;SDS011;3376;42.664;23.346;2023-05-10T14:48:11;7.27;;;6.67;;
6679;SDS011;3376;42.664;23.346;2023-05-10T14:50:40;7.03;;;6.60;;
6679;SDS011;3376;42.664;23.346;2023-05-10T14:56:02;7.40;;;7.00;;
6679;SDS011;3376;42.664;23.346;2023-05-10T14:58:28;7.63;;;7.20;;
6679;SDS011;3376;42.664;23.346;2023-05-10T15:00:55;7.23;;;6.83;;
6679;SDS011;3376;42.664;23.346;2023-05-10T15:03:24;7.03;;;6.53;;
6679;SDS011;3376;42.664;23.346;2023-05-10T15:05:51;7.07;;;6.67;;
6679;SDS011;3376;42.664;23.346;2023-05-10T15:08:18;7.30;;;6.57;;
6679;SDS011;3376;42.664;23.346;2023-05-10T15:10:44;6.30;;;6.00;;
6679;SDS011;3376;42.664;23.346;2023-05-10T15:13:11;10.17;;;6.60;;
6679;SDS011;3376;42.664;23.346;2023-05-10T15:15:38;6.73;;;6.23;;
6679;SDS011;3376;42.664;23.346;2023-05-10T15:18:05;7.50;;;7.10;;